KBAD

Barksdale AFB Airport

Bossier City, Louisiana, USA
METAR KBAD 162356Z AUTO 20004KT 10SM CLR 10/04 A3015 RMK AO2 RAB36 PRESRR SLP214 P0000 60000 T00980035 10135 20098 53012
Observed Flight Rules
Dec-16 @ 23:56 UTC (24 minutes ago) Visual Flight Rules
Wind Visibility Clouds
200° at 4 knots 10 miles
  • Clear skies
Temperatures Readings Precipitation
Current 10°C / 50°F
Dewpoint 4°C / 39°F
Humidity 67%
Altimeter 30.15" Hg
Pressure 1021.4 hPa
Elevation 51
Current Rain 0.005
METAR KBAD 162356Z AUTO 20004KT 10SM CLR 10/04 A3015 RMK AO2 RAB36 PRESRR SLP214 P0000 60000 T00980035 10135 20098 53012
Observed Flight Rules
Dec-16 @ 23:56 UTC
(24 minutes ago)
VFR
Wind Visibility
200° at 4 knots 10 miles
Clouds
  • Clear skies
Temperature Dewpoint
10°C / 50°F 4°C / 39°F
Humidity Altimeter Pressure
67% 30.15" Hg 1021.4 hPa
Current Rain
0.005